createdAt,value
2018-03-25T03:32:34.893Z,1.90
2018-03-25T03:35:08.752Z,1.90
2018-03-25T03:37:43.321Z,1.90
2018-03-25T03:40:17.970Z,1.90
2018-03-25T03:42:51.808Z,1.90
2018-03-25T03:45:25.642Z,1.90
2018-03-25T03:47:59.672Z,1.90
2018-03-25T03:50:34.394Z,2.00
2018-03-25T03:53:08.228Z,2.00
2018-03-25T03:55:41.881Z,2.00
2018-03-25T03:58:35.238Z,2.00
2018-03-25T04:01:09.080Z,2.00
2018-03-25T04:03:42.823Z,2.10
2018-03-25T04:06:17.509Z,2.10
2018-03-25T04:08:52.035Z,2.10
2018-03-25T04:11:25.767Z,2.10
2018-03-25T04:14:00.381Z,2.00
2018-03-25T04:16:34.222Z,2.00
2018-03-25T04:19:08.080Z,2.00
2018-03-25T04:21:41.988Z,1.90
2018-03-25T04:24:16.637Z,1.80
2018-03-25T04:26:50.400Z,1.80
2018-03-25T04:29:24.461Z,1.80
2018-03-25T04:31:58.132Z,1.80
2018-03-25T04:34:32.581Z,1.80
2018-03-25T04:37:07.273Z,1.90
2018-03-25T04:39:41.223Z,1.90
2018-03-25T04:42:15.049Z,1.90
2018-03-25T04:44:49.134Z,1.80
2018-03-25T04:47:23.643Z,1.70
2018-03-25T04:49:57.499Z,1.70
2018-03-25T04:52:31.953Z,1.70
2018-03-25T04:55:05.995Z,1.70
2018-03-25T04:57:39.640Z,1.70
2018-03-25T05:00:14.196Z,1.70
2018-03-25T05:02:48.103Z,1.70
2018-03-25T05:05:21.887Z,1.80
2018-03-25T05:07:55.796Z,1.80
2018-03-25T05:10:29.554Z,1.70
2018-03-25T05:13:03.352Z,1.80
2018-03-25T05:15:38.287Z,1.90
2018-03-25T05:18:12.074Z,1.90
2018-03-25T05:20:46.508Z,1.90
2018-03-25T05:23:20.196Z,1.90
2018-03-25T05:25:54.838Z,1.80
2018-03-25T05:28:29.456Z,1.80
2018-03-25T05:31:03.285Z,1.80
2018-03-25T05:33:37.480Z,1.70
2018-03-25T05:36:11.337Z,1.80
2018-03-25T05:38:45.516Z,1.80
2018-03-25T05:41:19.332Z,1.80
2018-03-25T05:43:53.833Z,2.00
2018-03-25T05:46:27.580Z,1.90
2018-03-25T05:49:01.349Z,2.00
2018-03-25T05:51:35.971Z,2.20
2018-03-25T05:54:09.675Z,2.10
2018-03-25T05:56:44.289Z,2.10
2018-03-25T05:59:18.011Z,2.10
2018-03-25T06:01:51.971Z,2.20
2018-03-25T06:04:26.515Z,2.20
2018-03-25T06:07:01.071Z,2.30
2018-03-25T06:09:34.724Z,2.30
2018-03-25T06:12:09.391Z,2.40
2018-03-25T06:14:43.120Z,2.40
2018-03-25T06:17:17.735Z,2.60
2018-03-25T06:19:52.222Z,2.70
2018-03-25T06:22:26.867Z,2.80
2018-03-25T06:25:01.101Z,2.80
2018-03-25T06:27:34.776Z,2.80
2018-03-25T06:30:08.633Z,2.80
2018-03-25T06:32:42.409Z,3.00
2018-03-25T06:35:16.135Z,3.00
2018-03-25T06:37:50.602Z,3.20
2018-03-25T06:40:24.400Z,3.20
2018-03-25T06:42:58.164Z,3.30
2018-03-25T06:45:32.008Z,3.30
2018-03-25T06:48:05.777Z,3.40
2018-03-25T06:50:39.860Z,3.30
2018-03-25T06:53:14.351Z,3.50
2018-03-25T06:55:48.128Z,3.40
2018-03-25T06:58:22.003Z,3.60
2018-03-25T07:00:55.856Z,3.70
2018-03-25T07:03:29.825Z,3.70
2018-03-25T07:06:03.560Z,3.80
2018-03-25T07:08:37.364Z,3.90
2018-03-25T07:11:11.048Z,4.00
2018-03-25T07:13:44.897Z,4.00
2018-03-25T07:16:18.593Z,4.10
2018-03-25T07:18:53.277Z,4.30
2018-03-25T07:21:26.964Z,4.30
2018-03-25T07:24:00.916Z,4.40
2018-03-25T07:26:34.723Z,4.60
2018-03-25T07:29:08.564Z,4.60
2018-03-25T07:31:42.436Z,4.60
2018-03-25T07:34:17.279Z,4.60
2018-03-25T07:36:51.091Z,4.80
2018-03-25T07:39:24.954Z,4.90
2018-03-25T07:41:58.750Z,4.90
2018-03-25T07:44:32.564Z,5.00
2018-03-25T07:47:06.365Z,5.10
2018-03-25T07:49:40.065Z,5.20
2018-03-25T07:52:13.775Z,5.40
2018-03-25T07:54:47.556Z,5.50
2018-03-25T07:57:21.402Z,5.50
2018-03-25T07:59:56.035Z,5.60
2018-03-25T08:02:29.933Z,5.60
2018-03-25T08:05:03.598Z,5.70
2018-03-25T08:07:38.144Z,6.00
2018-03-25T08:10:12.006Z,5.90
2018-03-25T08:12:45.796Z,6.10
2018-03-25T08:15:19.602Z,6.30
2018-03-25T08:17:53.357Z,6.50
2018-03-25T08:20:27.116Z,6.60
2018-03-25T08:23:01.678Z,7.00
2018-03-25T08:25:35.550Z,7.00
2018-03-25T08:28:09.289Z,7.80
2018-03-25T08:30:43.123Z,8.80
2018-03-25T08:33:17.017Z,10.10
2018-03-25T08:35:51.543Z,12.30
2018-03-25T08:38:26.158Z,13.30
2018-03-25T08:41:00.686Z,13.70
2018-03-25T08:43:34.600Z,13.70
2018-03-25T08:46:09.274Z,13.80
2018-03-25T08:48:43.304Z,13.80
2018-03-25T08:51:17.425Z,14.50
2018-03-25T08:53:51.597Z,14.30
2018-03-25T08:56:25.352Z,14.90
2018-03-25T08:58:59.268Z,15.50
2018-03-25T09:01:33.109Z,15.50
2018-03-25T09:04:06.937Z,15.10
2018-03-25T09:06:40.664Z,15.00
2018-03-25T09:09:15.317Z,15.30
2018-03-25T09:11:48.913Z,15.20
2018-03-25T09:14:22.636Z,15.50
2018-03-25T09:16:57.273Z,15.90
2018-03-25T09:19:31.142Z,15.90
2018-03-25T09:22:05.697Z,16.20
2018-03-25T09:24:40.189Z,16.70
2018-03-25T09:27:14.241Z,16.70
2018-03-25T09:29:48.109Z,16.50
2018-03-25T09:32:22.360Z,16.20
2018-03-25T09:34:56.132Z,16.40
2018-03-25T09:37:31.508Z,16.60
2018-03-25T09:40:06.105Z,17.00
2018-03-25T09:42:40.276Z,17.00
2018-03-25T09:45:13.948Z,17.40
2018-03-25T09:47:47.686Z,17.70
2018-03-25T09:50:21.856Z,17.50
2018-03-25T09:52:56.404Z,16.80
2018-03-25T09:55:31.081Z,16.90
2018-03-25T09:58:04.779Z,16.90
2018-03-25T10:00:39.336Z,16.40
2018-03-25T10:06:07.548Z,16.70
2018-03-25T10:08:41.404Z,16.80
2018-03-25T10:11:15.156Z,17.40
2018-03-25T10:13:48.757Z,17.10
2018-03-25T10:16:22.504Z,16.60
2018-03-25T10:18:56.159Z,16.90
2018-03-25T10:21:30.843Z,16.30
2018-03-25T10:24:04.494Z,16.30
2018-03-25T10:26:38.385Z,16.20
2018-03-25T10:29:12.085Z,16.40
2018-03-25T10:31:46.716Z,16.80
2018-03-25T10:34:21.317Z,17.70
2018-03-25T10:36:55.089Z,17.70
2018-03-25T10:39:29.676Z,17.60
2018-03-25T10:42:03.528Z,17.60
2018-03-25T10:44:37.309Z,17.10
2018-03-25T10:47:11.116Z,16.50
2018-03-25T10:49:44.960Z,16.50
2018-03-25T10:52:19.616Z,16.10
2018-03-25T10:54:53.640Z,16.10
2018-03-25T10:57:27.364Z,16.60
2018-03-25T11:00:01.199Z,16.80
2018-03-25T11:02:36.104Z,16.60
2018-03-25T11:05:09.851Z,16.60
2018-03-25T11:07:43.622Z,15.90
2018-03-25T11:10:17.411Z,15.90
2018-03-25T11:12:52.016Z,16.30
2018-03-25T11:15:25.989Z,16.30
2018-03-25T11:17:59.821Z,16.70
2018-03-25T11:20:34.342Z,16.30
2018-03-25T11:23:09.053Z,16.50
2018-03-25T11:25:42.796Z,16.50
2018-03-25T11:28:16.671Z,16.60
2018-03-25T11:30:51.193Z,16.30
2018-03-25T11:33:25.877Z,15.90
2018-03-25T11:35:59.624Z,15.90
2018-03-25T11:38:34.392Z,16.30
2018-03-25T11:41:08.878Z,16.00
2018-03-25T11:43:43.520Z,15.60
2018-03-25T11:46:18.032Z,15.50
2018-03-25T11:48:51.880Z,15.50
2018-03-25T11:51:25.796Z,15.50
2018-03-25T11:53:59.716Z,15.10
2018-03-25T11:56:33.573Z,15.00
2018-03-25T11:59:07.374Z,14.90
2018-03-25T12:01:41.590Z,15.10
2018-03-25T12:04:15.297Z,15.10
2018-03-25T12:06:49.915Z,14.90
2018-03-25T12:09:24.517Z,14.70
2018-03-25T12:11:58.399Z,14.70
2018-03-25T12:14:32.196Z,14.60
2018-03-25T12:17:05.965Z,14.50
2018-03-25T12:19:39.801Z,14.20
2018-03-25T12:22:13.893Z,14.10
2018-03-25T12:24:48.483Z,14.20
2018-03-25T12:27:23.052Z,14.40
2018-03-25T12:29:56.859Z,14.40
2018-03-25T12:32:30.707Z,14.50
2018-03-25T12:35:05.262Z,14.50
2018-03-25T12:37:39.925Z,14.50
2018-03-25T12:40:13.811Z,14.50
2018-03-25T12:42:47.616Z,14.40
2018-03-25T12:45:21.452Z,14.40
2018-03-25T12:47:55.710Z,14.40
2018-03-25T12:50:29.553Z,14.10
2018-03-25T12:53:04.194Z,14.20
2018-03-25T12:55:39.796Z,14.10
2018-03-25T12:58:13.464Z,14.30
2018-03-25T13:00:48.052Z,14.00
2018-03-25T13:03:21.895Z,14.00
2018-03-25T13:05:55.813Z,14.10
2018-03-25T13:08:29.575Z,14.10
2018-03-25T13:11:03.425Z,14.20
2018-03-25T13:13:37.307Z,14.10
2018-03-25T13:16:10.984Z,14.10
2018-03-25T13:18:44.730Z,14.20
2018-03-25T13:21:18.537Z,14.10
2018-03-25T13:23:52.343Z,14.20
2018-03-25T13:26:26.445Z,14.20
2018-03-25T13:29:00.381Z,14.10
2018-03-25T13:31:34.990Z,14.30
2018-03-25T13:34:08.756Z,14.30
2018-03-25T13:36:43.392Z,14.30
2018-03-25T13:39:17.094Z,14.30
2018-03-25T13:41:51.703Z,14.10
2018-03-25T13:44:26.352Z,14.00
2018-03-25T13:47:00.245Z,14.00
2018-03-25T13:49:34.111Z,13.90
2018-03-25T13:52:08.993Z,14.00
2018-03-25T13:54:43.497Z,14.00
2018-03-25T13:57:17.246Z,14.00
2018-03-25T13:59:52.719Z,14.10
2018-03-25T14:02:26.576Z,14.10
2018-03-25T14:05:01.297Z,14.20
2018-03-25T14:07:35.106Z,14.20
2018-03-25T14:10:08.917Z,14.30
2018-03-25T14:12:42.791Z,14.50
2018-03-25T14:15:17.324Z,14.50
2018-03-25T14:17:51.193Z,14.40
2018-03-25T14:20:25.044Z,14.40
2018-03-25T14:22:58.748Z,14.50
2018-03-25T14:25:32.562Z,14.40
2018-03-25T14:28:06.424Z,14.60
2018-03-25T14:30:40.990Z,14.60
2018-03-25T14:33:14.862Z,14.60
2018-03-25T14:35:48.648Z,14.60
2018-03-25T14:38:22.557Z,14.60
2018-03-25T14:40:57.219Z,14.50
2018-03-25T14:43:31.016Z,14.50
2018-03-25T14:46:04.933Z,14.40
2018-03-25T14:48:39.590Z,14.60
2018-03-25T14:51:13.673Z,14.50
2018-03-25T14:53:47.447Z,14.50
2018-03-25T14:56:21.237Z,14.40
2018-03-25T14:58:55.824Z,14.50
2018-03-25T15:01:29.476Z,14.50
2018-03-25T15:04:03.328Z,14.60
2018-03-25T15:06:37.159Z,14.60
2018-03-25T15:09:11.000Z,14.60
2018-03-25T15:11:45.547Z,14.40
2018-03-25T15:14:20.088Z,14.20
2018-03-25T15:16:53.869Z,14.20
2018-03-25T15:19:27.704Z,14.10
2018-03-25T15:22:01.529Z,14.10
2018-03-25T15:24:35.393Z,14.10
2018-03-25T15:27:09.925Z,13.90
2018-03-25T15:29:44.574Z,13.70
2018-03-25T15:32:18.304Z,13.70
2018-03-25T15:34:52.017Z,13.70
2018-03-25T15:37:25.860Z,13.60
2018-03-25T15:39:59.592Z,13.50
2018-03-25T15:42:33.683Z,13.50
2018-03-25T15:45:07.342Z,13.60
2018-03-25T15:47:41.524Z,13.70
2018-03-25T15:50:15.245Z,13.70
2018-03-25T15:52:49.118Z,13.70
2018-03-25T15:55:22.925Z,13.50
2018-03-25T15:57:56.708Z,13.50
2018-03-25T16:00:31.372Z,13.40
2018-03-25T16:03:05.085Z,13.30
2018-03-25T16:05:38.945Z,13.30
2018-03-25T16:08:12.795Z,13.30
2018-03-25T16:10:46.644Z,13.30
2018-03-25T16:13:21.429Z,13.20
2018-03-25T16:15:55.251Z,13.20
2018-03-25T16:18:29.847Z,13.10
2018-03-25T16:21:04.436Z,13.00
2018-03-25T16:23:38.096Z,13.00
2018-03-25T16:26:12.017Z,12.90
2018-03-25T16:28:45.807Z,12.90
2018-03-25T16:31:19.652Z,12.80
2018-03-25T16:33:53.421Z,12.80
2018-03-25T16:36:27.213Z,12.80
2018-03-25T16:39:01.748Z,12.70
2018-03-25T16:41:36.338Z,12.70
2018-03-25T16:44:10.329Z,12.60
2018-03-25T16:46:44.164Z,12.60
2018-03-25T16:49:18.096Z,12.50
2018-03-25T16:51:51.741Z,12.50
2018-03-25T16:54:25.808Z,12.50
2018-03-25T16:56:59.680Z,12.50
2018-03-25T16:59:33.424Z,12.40
2018-03-25T17:02:07.384Z,12.40
2018-03-25T17:04:41.139Z,12.40
2018-03-25T17:07:14.984Z,12.30
2018-03-25T17:09:48.793Z,12.30
2018-03-25T17:12:24.077Z,12.30
2018-03-25T17:14:58.961Z,12.30
2018-03-25T17:17:33.306Z,12.20
2018-03-25T17:20:07.976Z,12.20
2018-03-25T17:22:41.783Z,12.10
2018-03-25T17:25:16.697Z,12.00
2018-03-25T17:27:51.305Z,12.00
2018-03-25T17:30:25.132Z,12.00
2018-03-25T17:32:58.948Z,12.00
2018-03-25T17:35:32.760Z,11.90
2018-03-25T17:38:07.985Z,11.80
2018-03-25T17:40:41.871Z,11.80
2018-03-25T17:43:15.630Z,11.70
2018-03-25T17:45:49.416Z,11.60
2018-03-25T17:48:23.244Z,11.60
2018-03-25T17:50:57.028Z,11.60
2018-03-25T17:53:30.862Z,11.60
2018-03-25T17:56:05.328Z,11.50
2018-03-25T17:58:39.069Z,11.40
2018-03-25T18:01:12.976Z,11.40
2018-03-25T18:03:47.570Z,11.20
2018-03-25T18:06:21.417Z,11.20
2018-03-25T18:08:55.385Z,11.10
2018-03-25T18:11:29.972Z,11.00
2018-03-25T18:14:03.822Z,10.90
2018-03-25T18:16:38.436Z,10.90
2018-03-25T18:19:12.995Z,10.80
2018-03-25T18:21:46.963Z,10.70
2018-03-25T18:24:20.849Z,10.70
2018-03-25T18:26:54.648Z,10.70
2018-03-25T18:29:28.425Z,10.70
2018-03-25T18:32:03.750Z,10.50
2018-03-25T18:34:37.593Z,10.50
2018-03-25T18:37:11.401Z,10.40
2018-03-25T18:39:45.176Z,10.40
2018-03-25T18:42:19.773Z,10.30
2018-03-25T18:44:54.019Z,10.20
2018-03-25T18:47:27.777Z,10.20
2018-03-25T18:50:02.673Z,10.10
2018-03-25T18:52:36.604Z,10.10
2018-03-25T18:55:10.384Z,10.00
2018-03-25T18:57:44.187Z,10.00
2018-03-25T19:00:18.779Z,9.90
2018-03-25T19:02:52.557Z,9.90
2018-03-25T19:05:26.479Z,10.00
2018-03-25T19:08:01.095Z,9.90
2018-03-25T19:10:35.665Z,9.80
2018-03-25T19:13:10.240Z,9.80
2018-03-25T19:15:44.121Z,9.80
2018-03-25T19:18:17.941Z,9.70
2018-03-25T19:20:51.804Z,9.70
2018-03-25T19:23:25.466Z,9.60
2018-03-25T19:25:59.348Z,9.60
2018-03-25T19:28:32.957Z,9.50
2018-03-25T19:31:06.672Z,9.50
2018-03-25T19:33:40.489Z,9.50
2018-03-25T19:36:15.049Z,9.40
2018-03-25T19:38:48.747Z,9.40
2018-03-25T19:41:22.852Z,9.30
2018-03-25T19:43:57.252Z,9.30
2018-03-25T19:46:31.907Z,9.30
2018-03-25T19:49:05.807Z,9.20
2018-03-25T19:51:39.517Z,9.30
2018-03-25T19:54:13.353Z,9.30
2018-03-25T19:56:47.937Z,9.50
2018-03-25T19:59:21.701Z,9.40
2018-03-25T20:01:55.360Z,9.40
2018-03-25T20:04:29.204Z,9.40
2018-03-25T20:07:03.184Z,9.40
2018-03-25T20:09:37.000Z,9.40
2018-03-25T20:12:11.596Z,9.30
2018-03-25T20:14:46.197Z,9.30
2018-03-25T20:17:19.917Z,9.20
2018-03-25T20:19:55.017Z,9.30
2018-03-25T20:22:28.990Z,9.30
2018-03-25T20:25:02.772Z,9.30
2018-03-25T20:27:36.797Z,9.30
2018-03-25T20:30:10.509Z,9.20
2018-03-25T20:32:44.373Z,9.30
2018-03-25T20:35:18.913Z,9.30
2018-03-25T20:37:52.729Z,9.30
2018-03-25T20:40:27.258Z,9.30
2018-03-25T20:43:01.004Z,9.30
2018-03-25T20:45:34.785Z,9.30
2018-03-25T20:48:08.597Z,9.40
2018-03-25T20:50:42.391Z,9.40
2018-03-25T20:53:16.188Z,9.40
2018-03-25T20:55:50.008Z,9.40
2018-03-25T20:58:24.624Z,9.50
